createdAt,value
2019-03-29T00:01:12.887Z,8.80
2019-03-29T00:03:40.415Z,8.80
2019-03-29T00:06:07.980Z,8.70
2019-03-29T00:08:36.341Z,8.80
2019-03-29T00:11:04.029Z,8.80
2019-03-29T00:13:31.540Z,8.70
2019-03-29T00:15:59.994Z,8.60
2019-03-29T00:18:26.679Z,8.60
2019-03-29T00:20:54.210Z,8.60
2019-03-29T00:23:22.986Z,8.70
2019-03-29T00:25:49.339Z,8.70
2019-03-29T00:28:17.906Z,8.60
2019-03-29T00:30:45.443Z,8.60
2019-03-29T00:33:12.975Z,8.60
2019-03-29T00:35:40.531Z,8.50
2019-03-29T00:38:08.057Z,8.50
2019-03-29T00:40:35.619Z,8.50
2019-03-29T00:43:03.146Z,8.40
2019-03-29T00:45:30.711Z,8.40
2019-03-29T00:47:58.245Z,8.30
2019-03-29T00:50:25.801Z,8.30
2019-03-29T00:52:53.331Z,8.30
2019-03-29T00:55:20.941Z,8.10
2019-03-29T00:57:48.495Z,8.10
2019-03-29T01:00:16.026Z,8.10
2019-03-29T01:02:44.191Z,8.00
2019-03-29T01:05:11.224Z,8.00
2019-03-29T01:07:38.751Z,8.00
2019-03-29T01:10:06.282Z,7.90
2019-03-29T01:12:33.838Z,7.90
2019-03-29T01:15:01.373Z,8.10
2019-03-29T01:17:29.018Z,8.00
2019-03-29T01:19:56.557Z,8.00
2019-03-29T01:22:25.095Z,8.00
2019-03-29T01:24:52.627Z,8.00
2019-03-29T01:27:20.203Z,8.00
2019-03-29T01:29:47.727Z,7.90
2019-03-29T01:32:15.287Z,8.20
2019-03-29T01:34:43.122Z,8.10
2019-03-29T01:37:10.427Z,8.10
2019-03-29T01:39:37.987Z,8.10
2019-03-29T01:42:05.519Z,8.10
2019-03-29T01:44:33.070Z,8.00
2019-03-29T01:47:00.598Z,8.00
2019-03-29T01:49:28.160Z,8.00
2019-03-29T01:51:56.482Z,8.20
2019-03-29T01:54:24.041Z,8.20
2019-03-29T01:56:51.579Z,8.10
2019-03-29T01:59:19.139Z,8.00
2019-03-29T02:01:46.677Z,7.90
2019-03-29T02:04:14.236Z,7.80
2019-03-29T02:06:41.798Z,7.80
2019-03-29T02:09:09.371Z,7.90
2019-03-29T02:11:36.905Z,7.80
2019-03-29T02:14:04.462Z,7.80
2019-03-29T02:16:32.019Z,7.70
2019-03-29T02:18:59.582Z,7.70
2019-03-29T02:21:27.165Z,7.90
2019-03-29T02:23:54.692Z,7.70
2019-03-29T02:26:22.251Z,7.70
2019-03-29T02:28:49.782Z,7.60
2019-03-29T02:31:17.343Z,7.50
2019-03-29T02:33:45.649Z,7.60
2019-03-29T02:36:14.227Z,7.60
2019-03-29T02:38:54.886Z,7.60
2019-03-29T02:41:09.368Z,7.50
2019-03-29T02:43:38.436Z,7.50
2019-03-29T02:46:04.543Z,7.40
2019-03-29T02:48:33.102Z,7.40
2019-03-29T02:51:01.407Z,7.40
2019-03-29T02:53:28.962Z,7.40
2019-03-29T02:55:56.524Z,7.40
2019-03-29T02:58:24.093Z,7.30
2019-03-29T03:00:51.634Z,7.30
2019-03-29T03:03:19.203Z,7.20
2019-03-29T03:05:46.734Z,7.20
2019-03-29T03:08:14.327Z,7.20
2019-03-29T03:10:41.868Z,7.10
2019-03-29T03:13:09.402Z,7.00
2019-03-29T03:15:37.959Z,7.10
2019-03-29T03:18:05.500Z,7.20
2019-03-29T03:20:33.061Z,6.90
2019-03-29T03:23:00.621Z,6.90
2019-03-29T03:25:28.169Z,7.00
2019-03-29T03:27:55.727Z,7.10
2019-03-29T03:30:23.302Z,7.00
2019-03-29T03:32:50.909Z,6.90
2019-03-29T03:35:18.457Z,7.00
2019-03-29T03:37:46.036Z,7.00
2019-03-29T03:40:13.575Z,6.70
2019-03-29T03:42:41.146Z,6.70
2019-03-29T03:45:08.690Z,6.60
2019-03-29T03:47:36.255Z,6.50
2019-03-29T03:50:03.816Z,6.60
2019-03-29T03:52:31.357Z,6.70
2019-03-29T03:54:58.923Z,6.70
2019-03-29T03:57:26.502Z,6.70
2019-03-29T03:59:54.043Z,6.80
2019-03-29T04:02:21.608Z,6.70
2019-03-29T04:04:49.170Z,6.60
2019-03-29T04:07:16.712Z,6.60
2019-03-29T04:09:50.235Z,6.50
2019-03-29T04:12:11.891Z,6.40
2019-03-29T04:14:39.455Z,6.40
2019-03-29T04:17:06.987Z,6.50
2019-03-29T04:19:35.324Z,6.60
2019-03-29T04:22:02.996Z,6.50
2019-03-29T04:24:30.542Z,6.50
2019-03-29T04:26:58.115Z,6.50
2019-03-29T04:29:25.701Z,6.50
2019-03-29T04:31:54.248Z,6.40
2019-03-29T04:34:21.823Z,6.40
2019-03-29T04:36:49.359Z,6.50
2019-03-29T04:39:16.929Z,6.60
2019-03-29T04:41:44.464Z,6.80
2019-03-29T04:44:13.017Z,6.80
2019-03-29T04:46:43.551Z,6.90
2019-03-29T04:49:11.118Z,7.20
2019-03-29T04:51:38.658Z,7.40
2019-03-29T04:54:06.215Z,7.60
2019-03-29T04:56:33.756Z,7.70
2019-03-29T04:59:01.318Z,7.70
2019-03-29T05:01:28.887Z,7.80
2019-03-29T05:03:56.425Z,7.90
2019-03-29T05:06:23.977Z,8.00
2019-03-29T05:08:51.511Z,8.10
2019-03-29T05:11:19.072Z,8.10
2019-03-29T05:13:46.611Z,8.10
2019-03-29T05:16:14.175Z,8.10
2019-03-29T05:18:41.731Z,8.20
2019-03-29T05:21:09.263Z,8.10
2019-03-29T05:23:36.818Z,8.10
2019-03-29T05:26:04.502Z,8.10
2019-03-29T05:28:32.035Z,8.00
2019-03-29T05:30:59.623Z,8.00
2019-03-29T05:33:27.159Z,8.00
2019-03-29T05:35:54.723Z,8.10
2019-03-29T05:38:22.259Z,8.20
2019-03-29T05:40:49.794Z,8.30
2019-03-29T05:43:18.123Z,8.20
2019-03-29T05:45:45.659Z,8.20
2019-03-29T05:48:13.332Z,8.20
2019-03-29T05:50:40.872Z,8.30
2019-03-29T05:53:08.483Z,8.40
2019-03-29T05:55:36.012Z,8.40
2019-03-29T05:58:03.582Z,8.40
2019-03-29T06:00:31.147Z,8.40
2019-03-29T06:02:58.703Z,8.50
2019-03-29T06:05:26.239Z,8.50
2019-03-29T06:07:54.770Z,8.40
2019-03-29T06:10:22.326Z,8.40
2019-03-29T06:12:50.651Z,8.50
2019-03-29T06:15:18.189Z,8.50
2019-03-29T06:17:48.917Z,8.60
2019-03-29T06:20:14.329Z,8.60
2019-03-29T06:22:41.887Z,8.70
2019-03-29T06:25:10.380Z,8.70
2019-03-29T06:27:37.918Z,8.80
2019-03-29T06:30:05.484Z,8.90
2019-03-29T06:32:33.044Z,8.90
2019-03-29T06:35:00.622Z,8.90
2019-03-29T06:37:28.159Z,9.00
2019-03-29T06:39:56.719Z,9.00
2019-03-29T06:42:24.259Z,9.10
2019-03-29T06:44:51.819Z,9.20
2019-03-29T06:47:19.363Z,9.20
2019-03-29T06:49:46.918Z,9.30
2019-03-29T06:52:14.492Z,9.40
2019-03-29T06:54:42.051Z,9.50
2019-03-29T06:57:10.361Z,9.50
2019-03-29T06:59:37.925Z,9.50
2019-03-29T07:02:05.463Z,9.60
2019-03-29T07:04:33.975Z,9.70
2019-03-29T07:07:01.507Z,9.80
2019-03-29T07:09:29.074Z,9.90
2019-03-29T07:11:56.613Z,9.90
2019-03-29T07:14:24.156Z,10.00
2019-03-29T07:16:53.407Z,10.20
2019-03-29T07:19:20.951Z,10.20
2019-03-29T07:21:49.532Z,10.30
2019-03-29T07:24:17.091Z,10.30
2019-03-29T07:26:44.627Z,10.40
2019-03-29T07:29:12.162Z,10.60
2019-03-29T07:31:39.731Z,10.80
2019-03-29T07:34:07.387Z,10.70
2019-03-29T07:36:34.956Z,10.80
2019-03-29T07:39:02.521Z,10.90
2019-03-29T07:41:32.301Z,11.10
2019-03-29T07:43:57.647Z,11.10
2019-03-29T07:46:25.215Z,11.20
2019-03-29T07:48:52.759Z,11.30
2019-03-29T07:51:20.321Z,11.30
2019-03-29T07:53:47.869Z,11.40
2019-03-29T07:56:15.435Z,11.30
2019-03-29T07:58:42.979Z,11.50
2019-03-29T08:01:10.516Z,11.70
2019-03-29T08:03:38.084Z,11.80
2019-03-29T08:06:05.871Z,11.90
2019-03-29T08:08:34.542Z,12.00
2019-03-29T08:11:01.023Z,12.10
2019-03-29T08:13:28.602Z,12.30
2019-03-29T08:15:56.912Z,12.30
2019-03-29T08:18:24.480Z,12.30
2019-03-29T08:20:52.048Z,12.30
2019-03-29T08:23:19.605Z,12.10
2019-03-29T08:25:47.140Z,12.20
2019-03-29T08:28:14.703Z,12.40
2019-03-29T08:30:42.280Z,12.40
2019-03-29T08:33:10.863Z,12.50
2019-03-29T08:35:38.403Z,12.50
2019-03-29T08:38:06.409Z,12.60
2019-03-29T08:40:33.583Z,12.60
2019-03-29T08:43:01.143Z,12.70
2019-03-29T08:45:28.679Z,12.70
2019-03-29T08:47:56.238Z,12.80
2019-03-29T08:50:23.802Z,12.90
2019-03-29T08:52:52.127Z,12.80
2019-03-29T08:55:19.670Z,12.80
2019-03-29T08:57:47.207Z,13.00
2019-03-29T09:00:15.967Z,13.00
2019-03-29T09:02:42.380Z,13.00
2019-03-29T09:05:09.956Z,12.90
2019-03-29T09:07:44.674Z,13.00
2019-03-29T09:10:05.139Z,13.00
2019-03-29T09:12:32.672Z,13.10
2019-03-29T09:15:03.445Z,13.30
2019-03-29T09:17:27.819Z,13.50
2019-03-29T09:19:55.364Z,13.60
2019-03-29T09:22:23.740Z,13.00
2019-03-29T09:24:51.327Z,13.00
2019-03-29T09:27:18.867Z,13.20
2019-03-29T09:29:46.428Z,13.30
2019-03-29T09:32:13.972Z,13.40
2019-03-29T09:34:41.534Z,13.20
2019-03-29T09:37:09.075Z,13.30
2019-03-29T09:39:36.640Z,13.10
2019-03-29T09:42:04.211Z,13.00
2019-03-29T09:44:31.780Z,13.30
2019-03-29T09:46:59.327Z,13.30
2019-03-29T09:49:26.896Z,13.20
2019-03-29T09:51:54.462Z,13.10
2019-03-29T09:54:22.002Z,13.30
2019-03-29T09:56:49.569Z,13.20
2019-03-29T09:59:17.112Z,13.20
2019-03-29T10:01:44.648Z,13.40
2019-03-29T10:04:12.216Z,13.50
2019-03-29T10:06:39.784Z,13.60
2019-03-29T10:09:07.368Z,13.40
2019-03-29T10:11:34.903Z,13.50
2019-03-29T10:14:02.475Z,13.70
2019-03-29T10:16:30.039Z,13.90
2019-03-29T10:18:57.579Z,13.90
2019-03-29T10:21:25.139Z,14.00
2019-03-29T10:23:52.676Z,14.20
2019-03-29T10:26:20.247Z,14.20
2019-03-29T10:28:47.783Z,14.10
2019-03-29T10:31:15.315Z,14.00
2019-03-29T10:33:42.877Z,14.00
2019-03-29T10:36:10.443Z,14.30
2019-03-29T10:38:38.007Z,14.50
2019-03-29T10:41:05.633Z,14.70
2019-03-29T10:43:33.190Z,14.80
2019-03-29T10:46:00.846Z,14.90
2019-03-29T10:48:28.475Z,15.00
2019-03-29T10:50:56.017Z,15.20
2019-03-29T10:53:23.575Z,15.20
2019-03-29T10:55:51.111Z,15.20
2019-03-29T10:58:19.444Z,15.30
2019-03-29T11:00:47.776Z,15.40
2019-03-29T11:03:15.347Z,15.40
2019-03-29T11:05:42.912Z,15.30
2019-03-29T11:08:12.132Z,15.40
2019-03-29T11:10:38.054Z,15.60
2019-03-29T11:13:13.337Z,15.30
2019-03-29T11:15:33.195Z,15.50
2019-03-29T11:18:01.834Z,15.40
2019-03-29T11:20:29.345Z,15.60
2019-03-29T11:22:56.915Z,15.80
2019-03-29T11:25:24.452Z,16.00
2019-03-29T11:27:52.011Z,15.90
2019-03-29T11:30:19.570Z,16.00
2019-03-29T11:32:47.131Z,16.20
2019-03-29T11:35:14.671Z,16.30
2019-03-29T11:37:42.231Z,16.20
2019-03-29T11:40:09.821Z,16.40
2019-03-29T11:42:37.360Z,16.50
2019-03-29T11:45:04.891Z,16.70
2019-03-29T11:47:32.454Z,16.80
2019-03-29T11:49:59.991Z,17.10
2019-03-29T11:52:28.324Z,16.90
2019-03-29T11:54:56.862Z,16.90
2019-03-29T11:57:24.413Z,17.10
2019-03-29T11:59:52.954Z,17.20
2019-03-29T12:02:31.194Z,17.50
2019-03-29T12:04:48.131Z,17.70
2019-03-29T12:07:15.674Z,17.70
2019-03-29T12:09:43.247Z,17.40
2019-03-29T12:12:10.807Z,17.60
2019-03-29T12:14:38.377Z,18.00
2019-03-29T12:17:05.934Z,18.00
2019-03-29T12:19:33.506Z,17.90
2019-03-29T12:22:01.050Z,18.20
2019-03-29T12:24:28.592Z,17.70
2019-03-29T12:26:56.166Z,18.10
2019-03-29T12:29:23.713Z,18.40
2019-03-29T12:31:51.286Z,18.60
2019-03-29T12:34:18.869Z,18.50
2019-03-29T12:36:46.418Z,18.80
2019-03-29T12:39:14.755Z,18.80
2019-03-29T12:41:42.329Z,18.70
2019-03-29T12:44:09.863Z,18.60
2019-03-29T12:46:37.424Z,19.00
2019-03-29T12:49:04.992Z,18.60
2019-03-29T12:51:32.542Z,19.10
2019-03-29T12:54:00.192Z,19.10
2019-03-29T12:56:27.757Z,19.50
2019-03-29T12:58:56.315Z,19.30
2019-03-29T13:01:23.855Z,19.20
2019-03-29T13:03:51.479Z,18.90
2019-03-29T13:06:19.043Z,19.40
2019-03-29T13:08:46.579Z,19.50
2019-03-29T13:11:14.147Z,19.70
2019-03-29T13:13:41.712Z,20.00
2019-03-29T13:16:09.276Z,20.30
2019-03-29T13:18:36.840Z,20.50
2019-03-29T13:21:04.384Z,20.30
2019-03-29T13:23:32.927Z,20.10
2019-03-29T13:26:00.499Z,20.20
2019-03-29T13:28:28.157Z,20.50
2019-03-29T13:30:55.683Z,20.40
2019-03-29T13:33:23.227Z,20.50
2019-03-29T13:35:51.569Z,20.30
2019-03-29T13:38:20.702Z,20.30
2019-03-29T13:40:46.709Z,20.40
2019-03-29T13:43:14.283Z,20.70
2019-03-29T13:45:41.826Z,20.70
2019-03-29T13:48:09.387Z,20.50
2019-03-29T13:50:36.931Z,20.70
2019-03-29T13:53:04.490Z,20.20
2019-03-29T13:55:32.056Z,20.20
2019-03-29T13:57:59.627Z,20.10
2019-03-29T14:00:27.215Z,20.30
2019-03-29T14:02:54.756Z,20.50
2019-03-29T14:05:22.324Z,19.90
2019-03-29T14:07:49.868Z,19.90
2019-03-29T14:10:17.448Z,20.20
2019-03-29T14:12:44.978Z,20.90
2019-03-29T14:15:12.549Z,20.80
2019-03-29T14:17:40.149Z,20.60
2019-03-29T14:20:07.690Z,20.70
2019-03-29T14:22:35.235Z,21.10
2019-03-29T14:25:02.803Z,21.50
2019-03-29T14:27:30.384Z,21.60
2019-03-29T14:30:04.090Z,21.60
2019-03-29T14:32:25.536Z,20.30
2019-03-29T14:34:53.188Z,20.40
2019-03-29T14:37:20.756Z,20.60
2019-03-29T14:39:49.152Z,20.70
2019-03-29T14:42:16.687Z,20.90
2019-03-29T14:44:52.161Z,21.20
2019-03-29T14:47:11.874Z,21.50
2019-03-29T14:49:39.434Z,20.90
2019-03-29T14:52:06.970Z,21.10
2019-03-29T14:54:34.526Z,21.40
2019-03-29T14:57:05.310Z,21.10
2019-03-29T14:59:29.663Z,21.60
2019-03-29T15:01:57.978Z,23.00
2019-03-29T15:04:25.567Z,22.90
2019-03-29T15:06:53.186Z,22.50
2019-03-29T15:09:20.786Z,22.70
2019-03-29T15:11:48.319Z,22.30
2019-03-29T15:14:15.846Z,21.60
2019-03-29T15:16:43.411Z,21.20
2019-03-29T15:19:10.946Z,21.60
2019-03-29T15:21:38.509Z,21.90
2019-03-29T15:24:06.084Z,22.40
2019-03-29T15:26:33.615Z,22.90
2019-03-29T15:29:01.199Z,23.30
2019-03-29T15:31:28.755Z,25.00
2019-03-29T15:33:56.322Z,25.80
2019-03-29T15:36:23.871Z,26.00
2019-03-29T15:38:51.432Z,26.30
2019-03-29T15:41:18.962Z,25.90
2019-03-29T15:43:46.522Z,26.00
2019-03-29T15:46:14.088Z,25.70
2019-03-29T15:48:41.618Z,26.00
2019-03-29T15:51:09.182Z,24.60
2019-03-29T15:53:36.715Z,24.20
2019-03-29T15:56:04.600Z,22.70
2019-03-29T15:58:32.904Z,20.30
2019-03-29T16:01:00.988Z,20.30
2019-03-29T16:03:28.519Z,20.40
2019-03-29T16:05:56.050Z,20.60
2019-03-29T16:08:23.607Z,21.40
2019-03-29T16:10:51.168Z,22.50
2019-03-29T16:13:18.727Z,23.00
2019-03-29T16:15:46.259Z,22.90
2019-03-29T16:18:13.790Z,22.60
2019-03-29T16:20:49.417Z,20.70
2019-03-29T16:23:16.949Z,19.70
2019-03-29T16:25:45.275Z,18.90
2019-03-29T16:28:12.815Z,18.90
2019-03-29T16:30:40.377Z,18.70
2019-03-29T16:33:07.934Z,18.40
2019-03-29T16:35:35.467Z,17.90
2019-03-29T16:38:03.770Z,17.80
2019-03-29T16:40:31.441Z,17.80
2019-03-29T16:42:58.906Z,17.80
2019-03-29T16:45:26.460Z,17.80
2019-03-29T16:47:54.002Z,17.80
2019-03-29T16:50:21.558Z,17.60
2019-03-29T16:52:49.092Z,17.50
2019-03-29T16:55:16.623Z,17.30
2019-03-29T16:57:44.962Z,17.10
2019-03-29T17:00:12.909Z,17.10
2019-03-29T17:02:40.106Z,16.90
2019-03-29T17:05:07.664Z,16.60
2019-03-29T17:07:35.203Z,16.40
2019-03-29T17:10:02.763Z,16.20
2019-03-29T17:12:30.328Z,15.90
2019-03-29T17:14:57.891Z,15.70
2019-03-29T17:17:25.427Z,15.60
2019-03-29T17:19:52.959Z,15.40
2019-03-29T17:22:20.519Z,15.30
2019-03-29T17:24:56.914Z,15.10
2019-03-29T17:27:15.674Z,15.00
2019-03-29T17:29:43.207Z,14.80
2019-03-29T17:32:10.774Z,14.70
2019-03-29T17:34:39.022Z,14.50
2019-03-29T17:37:06.556Z,14.40
2019-03-29T17:39:38.850Z,14.30
2019-03-29T17:42:06.411Z,14.10
2019-03-29T17:44:33.968Z,13.90
2019-03-29T17:47:01.502Z,13.80
2019-03-29T17:49:29.028Z,13.70
2019-03-29T17:51:56.602Z,13.60
2019-03-29T17:54:24.139Z,13.50
2019-03-29T17:56:51.703Z,13.30
2019-03-29T17:59:19.408Z,13.20
2019-03-29T18:01:47.214Z,13.00
2019-03-29T18:04:14.550Z,12.80
2019-03-29T18:06:42.088Z,12.70
2019-03-29T18:09:09.647Z,12.70
2019-03-29T18:11:37.203Z,12.60
2019-03-29T18:14:04.772Z,12.50
2019-03-29T18:16:32.307Z,12.60
2019-03-29T18:18:59.863Z,12.50
2019-03-29T18:21:27.420Z,12.60
2019-03-29T18:23:54.958Z,12.60
2019-03-29T18:26:22.513Z,12.50
2019-03-29T18:28:50.051Z,12.30
2019-03-29T18:31:18.378Z,12.10
2019-03-29T18:33:45.912Z,12.10
2019-03-29T18:36:13.475Z,12.00
2019-03-29T18:38:41.011Z,12.00
2019-03-29T18:41:08.552Z,11.90
2019-03-29T18:43:36.882Z,12.00
2019-03-29T18:46:04.422Z,12.00
2019-03-29T18:48:31.983Z,11.90
2019-03-29T18:50:59.514Z,11.70
2019-03-29T18:53:27.070Z,11.60
2019-03-29T18:55:54.730Z,11.60
2019-03-29T18:58:22.260Z,11.70
2019-03-29T19:00:49.823Z,11.70
2019-03-29T19:03:17.363Z,11.60
2019-03-29T19:05:44.926Z,11.60
2019-03-29T19:08:12.482Z,11.50
2019-03-29T19:10:40.015Z,11.50
2019-03-29T19:13:07.574Z,11.40
2019-03-29T19:15:35.118Z,11.40
2019-03-29T19:18:02.678Z,11.40
2019-03-29T19:20:30.214Z,11.50
2019-03-29T19:22:57.772Z,11.40
2019-03-29T19:25:25.323Z,11.50
2019-03-29T19:27:52.896Z,11.40
2019-03-29T19:30:20.457Z,11.30
2019-03-29T19:32:56.513Z,11.20
2019-03-29T19:35:24.076Z,11.20
2019-03-29T19:37:51.722Z,11.10
2019-03-29T19:40:20.257Z,11.10
2019-03-29T19:42:47.975Z,11.10
2019-03-29T19:45:15.535Z,11.10
2019-03-29T19:47:43.095Z,10.90
2019-03-29T19:50:10.659Z,10.80
2019-03-29T19:52:38.197Z,10.60
2019-03-29T19:55:05.756Z,10.60
2019-03-29T19:57:33.317Z,10.50
2019-03-29T20:00:01.081Z,10.50
2019-03-29T20:02:28.629Z,10.60
2019-03-29T20:04:56.199Z,10.60
2019-03-29T20:07:23.739Z,10.60
2019-03-29T20:09:51.299Z,10.50
2019-03-29T20:12:18.836Z,10.50
2019-03-29T20:14:48.334Z,10.60
2019-03-29T20:17:27.011Z,10.50
2019-03-29T20:19:43.490Z,10.50
2019-03-29T20:22:11.051Z,10.40
2019-03-29T20:24:38.611Z,10.40
2019-03-29T20:27:06.150Z,10.30
2019-03-29T20:29:33.708Z,10.30
2019-03-29T20:32:01.267Z,10.30
2019-03-29T20:34:28.800Z,10.30
2019-03-29T20:36:57.516Z,10.00
2019-03-29T20:39:25.593Z,9.90
2019-03-29T20:41:53.169Z,10.00
2019-03-29T20:44:20.726Z,9.90
2019-03-29T20:46:48.260Z,9.70
2019-03-29T20:49:15.815Z,9.60
2019-03-29T20:51:44.113Z,9.50
2019-03-29T20:54:11.755Z,9.40
2019-03-29T20:56:39.297Z,9.30
2019-03-29T20:59:06.860Z,9.20
2019-03-29T21:01:34.422Z,9.30
2019-03-29T21:04:01.951Z,9.30
2019-03-29T21:06:29.510Z,9.20
2019-03-29T21:08:58.051Z,9.10
2019-03-29T21:11:25.596Z,9.00
2019-03-29T21:13:53.159Z,8.90
2019-03-29T21:16:20.721Z,8.90
2019-03-29T21:18:48.281Z,8.80
2019-03-29T21:21:15.819Z,8.80
2019-03-29T21:23:47.042Z,8.70
2019-03-29T21:26:12.727Z,8.60
2019-03-29T21:28:40.279Z,8.60
2019-03-29T21:31:08.165Z,8.60
2019-03-29T21:33:35.707Z,8.60
2019-03-29T21:36:03.276Z,8.50
2019-03-29T21:38:30.810Z,8.30
2019-03-29T21:40:58.373Z,8.30
2019-03-29T21:43:26.951Z,8.20
2019-03-29T21:45:54.486Z,8.20
2019-03-29T21:48:29.425Z,8.00
2019-03-29T21:50:49.622Z,8.00
2019-03-29T21:53:17.189Z,8.00
2019-03-29T21:55:44.723Z,8.00
2019-03-29T21:58:13.240Z,7.90
2019-03-29T22:00:40.771Z,7.90
2019-03-29T22:03:09.094Z,7.90
2019-03-29T22:05:36.638Z,7.90
2019-03-29T22:08:04.202Z,7.90
2019-03-29T22:10:32.700Z,7.80
2019-03-29T22:13:00.257Z,7.80
2019-03-29T22:15:27.786Z,7.90
2019-03-29T22:17:55.345Z,8.00
2019-03-29T22:20:22.900Z,8.00
2019-03-29T22:22:50.564Z,7.90
2019-03-29T22:25:18.100Z,7.90
2019-03-29T22:27:45.631Z,7.90
2019-03-29T22:30:13.190Z,7.80
2019-03-29T22:32:44.670Z,7.70
2019-03-29T22:35:12.228Z,7.60
2019-03-29T22:37:39.756Z,7.50
2019-03-29T22:40:08.076Z,7.50
2019-03-29T22:42:35.622Z,7.40
2019-03-29T22:45:03.175Z,7.30
2019-03-29T22:47:30.708Z,7.30
2019-03-29T22:49:59.028Z,7.20
2019-03-29T22:52:26.562Z,7.20
2019-03-29T22:54:54.116Z,7.30
2019-03-29T22:57:22.099Z,7.30
2019-03-29T22:59:50.103Z,7.20
2019-03-29T23:02:17.659Z,7.20
2019-03-29T23:04:45.257Z,7.10
2019-03-29T23:07:12.790Z,7.10
2019-03-29T23:09:40.319Z,7.10
2019-03-29T23:12:07.902Z,7.00
2019-03-29T23:14:35.434Z,7.00
2019-03-29T23:17:02.990Z,7.00
2019-03-29T23:19:30.526Z,7.00
2019-03-29T23:21:58.084Z,7.10
2019-03-29T23:24:25.622Z,7.10
2019-03-29T23:26:54.173Z,7.10
2019-03-29T23:29:21.703Z,7.10
2019-03-29T23:31:49.266Z,7.10
2019-03-29T23:34:16.791Z,7.10
2019-03-29T23:36:44.340Z,7.10
2019-03-29T23:39:11.872Z,7.10
2019-03-29T23:41:40.174Z,7.10
2019-03-29T23:44:07.732Z,7.00
2019-03-29T23:46:35.293Z,7.00
2019-03-29T23:49:02.847Z,7.00
2019-03-29T23:51:30.373Z,6.90
2019-03-29T23:53:58.686Z,6.80
2019-03-29T23:56:26.217Z,6.80
2019-03-29T23:58:53.767Z,6.70
